createdAt,value
2017-12-19T00:01:47.615Z,27.37
2017-12-19T00:04:15.125Z,29.17
2017-12-19T00:06:43.408Z,27.95
2017-12-19T00:09:10.935Z,30.12
2017-12-19T00:11:39.232Z,26.48
2017-12-19T00:14:07.515Z,29.83
2017-12-19T00:16:35.025Z,25.70
2017-12-19T00:19:02.534Z,27.95
2017-12-19T00:21:30.068Z,30.77
2017-12-19T00:23:57.560Z,27.77
2017-12-19T00:26:25.069Z,28.00
2017-12-19T00:28:52.604Z,27.90
2017-12-19T00:31:20.102Z,27.90
2017-12-19T00:33:48.371Z,27.08
2017-12-19T00:36:15.898Z,28.75
2017-12-19T00:38:43.405Z,26.75
2017-12-19T00:41:11.685Z,29.75
2017-12-19T00:43:39.972Z,27.27
2017-12-19T00:46:07.485Z,27.83
2017-12-19T00:48:34.979Z,30.37
2017-12-19T00:51:03.263Z,30.58
2017-12-19T00:53:30.774Z,27.45
2017-12-19T00:55:58.279Z,28.25
2017-12-19T00:58:25.799Z,27.75
2017-12-19T01:00:53.313Z,29.90
2017-12-19T01:03:20.811Z,28.25
2017-12-19T01:05:48.337Z,29.80
2017-12-19T01:08:15.853Z,31.00
2017-12-19T01:10:44.138Z,29.92
2017-12-19T01:13:12.412Z,31.17
2017-12-19T01:15:40.685Z,30.42
2017-12-19T01:18:08.964Z,31.87
2017-12-19T01:20:37.237Z,32.38
2017-12-19T01:23:05.540Z,33.15
2017-12-19T01:25:33.035Z,30.75
2017-12-19T01:28:00.530Z,33.60
2017-12-19T01:30:28.831Z,32.38
2017-12-19T01:32:56.340Z,35.33
2017-12-19T01:35:23.877Z,34.40
2017-12-19T01:37:51.367Z,31.90
2017-12-19T01:40:19.632Z,36.88
2017-12-19T01:42:47.151Z,35.70
2017-12-19T01:45:14.662Z,36.03
2017-12-19T01:47:42.962Z,38.05
2017-12-19T01:50:10.473Z,36.72
2017-12-19T01:52:37.975Z,35.50
2017-12-19T01:55:05.513Z,36.33
2017-12-19T01:57:33.783Z,35.35
2017-12-19T02:00:02.085Z,35.90
2017-12-19T02:02:29.583Z,34.78
2017-12-19T02:04:57.101Z,37.88
2017-12-19T02:07:24.633Z,38.03
2017-12-19T02:09:52.144Z,36.75
2017-12-19T02:12:19.666Z,34.88
2017-12-19T02:14:47.945Z,36.75
2017-12-19T02:17:16.211Z,37.90
2017-12-19T02:19:44.500Z,35.75
2017-12-19T02:22:11.999Z,34.03
2017-12-19T02:24:39.537Z,32.63
2017-12-19T02:27:07.045Z,33.88
2017-12-19T02:29:34.544Z,34.35
2017-12-19T02:32:02.059Z,37.15
2017-12-19T02:34:29.559Z,33.90
2017-12-19T02:36:57.097Z,32.70
2017-12-19T02:39:25.359Z,31.90
2017-12-19T02:41:52.873Z,33.75
2017-12-19T02:44:20.395Z,30.15
2017-12-19T02:46:48.659Z,28.33
2017-12-19T02:49:16.961Z,28.92
2017-12-19T02:51:44.459Z,30.23
2017-12-19T02:54:11.978Z,31.45
2017-12-19T02:56:39.563Z,30.40
2017-12-19T02:59:07.058Z,26.70
2017-12-19T03:01:34.590Z,25.75
2017-12-19T03:04:02.090Z,24.58
2017-12-19T03:06:30.365Z,29.80
2017-12-19T03:08:58.647Z,27.00
2017-12-19T03:11:26.927Z,24.77
2017-12-19T03:13:54.509Z,27.67
2017-12-19T03:16:22.012Z,29.50
2017-12-19T03:18:49.510Z,28.75
2017-12-19T03:21:17.027Z,30.27
2017-12-19T03:23:44.536Z,28.42
2017-12-19T03:26:12.077Z,29.65
2017-12-19T03:28:39.593Z,27.48
2017-12-19T03:31:07.086Z,28.48
2017-12-19T03:33:35.358Z,28.25
2017-12-19T03:36:03.633Z,27.77
2017-12-19T03:38:31.918Z,24.48
2017-12-19T03:41:00.185Z,22.52
2017-12-19T03:43:28.445Z,21.77
2017-12-19T03:45:55.955Z,22.98
2017-12-19T03:48:23.451Z,23.15
2017-12-19T03:50:50.975Z,23.70
2017-12-19T03:53:18.486Z,25.75
2017-12-19T03:55:46.768Z,23.73
2017-12-19T03:58:15.057Z,25.10
2017-12-19T04:00:42.569Z,26.33
2017-12-19T04:03:10.091Z,24.55
2017-12-19T04:05:37.600Z,22.40
2017-12-19T04:08:05.113Z,26.67
2017-12-19T04:10:32.628Z,25.88
2017-12-19T04:13:00.901Z,28.08
2017-12-19T04:15:28.441Z,25.77
2017-12-19T04:17:55.934Z,26.20
2017-12-19T04:20:24.205Z,25.85
2017-12-19T04:22:52.480Z,26.50
2017-12-19T04:25:20.755Z,25.95
2017-12-19T04:27:49.052Z,28.52
2017-12-19T04:30:16.560Z,29.50
2017-12-19T04:32:44.063Z,28.83
2017-12-19T04:35:11.579Z,27.92
2017-12-19T04:37:39.075Z,27.95
2017-12-19T04:40:07.363Z,31.05
2017-12-19T04:42:34.881Z,28.12
2017-12-19T04:45:02.375Z,26.52
2017-12-19T04:47:29.892Z,28.73
2017-12-19T04:49:57.391Z,25.98
2017-12-19T04:52:24.963Z,27.90
2017-12-19T04:54:52.465Z,27.90
2017-12-19T04:57:19.974Z,28.27
2017-12-19T04:59:47.509Z,28.90
2017-12-19T05:02:15.771Z,27.10
2017-12-19T05:04:44.093Z,27.50
2017-12-19T05:07:11.604Z,27.00
2017-12-19T05:09:39.862Z,26.23
2017-12-19T05:12:07.395Z,25.08
2017-12-19T05:14:34.909Z,29.90
2017-12-19T05:17:03.195Z,30.42
2017-12-19T05:19:30.705Z,28.40
2017-12-19T05:21:58.199Z,26.12
2017-12-19T05:24:26.495Z,26.02
2017-12-19T05:26:53.991Z,26.30
2017-12-19T05:29:21.525Z,27.87
2017-12-19T05:31:49.094Z,25.88
2017-12-19T05:34:17.333Z,23.73
2017-12-19T05:36:45.612Z,25.08
2017-12-19T05:39:13.885Z,26.75
2017-12-19T05:41:42.327Z,25.48
2017-12-19T05:44:09.827Z,28.10
2017-12-19T05:46:37.319Z,24.10
2017-12-19T05:49:04.827Z,23.75
2017-12-19T05:51:33.113Z,21.90
2017-12-19T05:54:01.406Z,24.15
2017-12-19T05:56:28.918Z,23.83
2017-12-19T05:58:56.411Z,22.20
2017-12-19T06:01:23.936Z,25.80
2017-12-19T06:03:51.431Z,24.50
2017-12-19T06:06:18.966Z,24.35
2017-12-19T06:08:47.249Z,24.27
2017-12-19T06:11:15.511Z,24.80
2017-12-19T06:13:43.037Z,23.12
2017-12-19T06:16:10.531Z,25.12
2017-12-19T06:18:38.047Z,27.27
2017-12-19T06:21:05.538Z,22.70
2017-12-19T06:23:33.053Z,25.27
2017-12-19T06:26:00.567Z,25.20
2017-12-19T06:28:28.849Z,23.92
2017-12-19T06:30:57.148Z,25.00
2017-12-19T06:33:24.638Z,25.58
2017-12-19T06:35:52.131Z,26.75
2017-12-19T06:38:19.701Z,25.95
2017-12-19T06:40:47.977Z,23.25
2017-12-19T06:43:16.266Z,25.42
2017-12-19T06:45:43.763Z,26.35
2017-12-19T06:48:11.272Z,25.12
2017-12-19T06:50:39.561Z,25.83
2017-12-19T06:53:07.059Z,26.50
2017-12-19T06:55:34.579Z,26.37
2017-12-19T06:58:02.089Z,25.90
2017-12-19T07:00:29.609Z,25.73
2017-12-19T07:02:57.131Z,26.80
2017-12-19T07:05:25.391Z,26.05
2017-12-19T07:07:52.910Z,27.02
2017-12-19T07:10:20.403Z,26.40
2017-12-19T07:12:47.921Z,28.48
2017-12-19T07:15:15.444Z,25.17
2017-12-19T07:17:43.715Z,27.40
2017-12-19T07:20:12.016Z,27.23
2017-12-19T07:22:39.511Z,25.85
2017-12-19T07:25:07.016Z,28.35
2017-12-19T07:27:35.309Z,27.42
2017-12-19T07:30:02.825Z,28.75
2017-12-19T07:32:30.369Z,27.60
2017-12-19T07:34:57.866Z,27.42
2017-12-19T07:37:26.135Z,29.60
2017-12-19T07:39:54.414Z,28.35
2017-12-19T07:42:22.679Z,28.48
2017-12-19T07:44:50.971Z,27.37
2017-12-19T07:47:18.483Z,31.08
2017-12-19T07:49:45.978Z,29.40
2017-12-19T07:52:14.269Z,30.33
2017-12-19T07:54:41.771Z,26.50
2017-12-19T07:57:09.315Z,27.58
2017-12-19T07:59:36.825Z,25.85
2017-12-19T08:02:05.086Z,28.58
2017-12-19T08:04:32.613Z,28.62
2017-12-19T08:07:00.107Z,29.23
2017-12-19T08:09:27.665Z,31.02
2017-12-19T08:11:55.174Z,27.45
2017-12-19T08:14:22.727Z,31.02
2017-12-19T08:16:51.005Z,28.73
2017-12-19T08:19:18.502Z,31.12
2017-12-19T08:21:47.543Z,29.83
2017-12-19T08:24:15.043Z,27.13
2017-12-19T08:26:42.556Z,29.52
2017-12-19T08:29:10.062Z,28.00
2017-12-19T08:31:37.577Z,27.30
2017-12-19T08:34:05.115Z,28.77
2017-12-19T08:36:33.397Z,25.20
2017-12-19T08:39:01.673Z,32.08
2017-12-19T08:41:29.961Z,28.33
2017-12-19T08:43:57.473Z,27.13
2017-12-19T08:46:24.998Z,27.27
2017-12-19T08:48:53.267Z,26.80
2017-12-19T08:51:20.777Z,27.75
2017-12-19T08:53:48.305Z,25.65
2017-12-19T08:56:15.817Z,27.05
2017-12-19T08:58:44.118Z,28.75
2017-12-19T09:01:11.619Z,33.05
2017-12-19T09:03:39.131Z,30.88
2017-12-19T09:06:06.647Z,27.80
2017-12-19T09:08:34.157Z,27.00
2017-12-19T09:11:01.696Z,26.67
2017-12-19T09:13:29.194Z,27.73
2017-12-19T09:15:56.687Z,27.05
2017-12-19T09:18:24.967Z,25.12
2017-12-19T09:20:53.241Z,26.27
2017-12-19T09:23:21.527Z,27.17
2017-12-19T09:25:49.801Z,27.37
2017-12-19T09:28:18.063Z,27.08
2017-12-19T09:30:45.575Z,25.62
2017-12-19T09:33:13.085Z,27.98
2017-12-19T09:35:41.385Z,33.28
2017-12-19T09:38:08.897Z,31.85
2017-12-19T09:40:36.405Z,30.52
2017-12-19T09:43:03.929Z,28.50
2017-12-19T09:45:31.481Z,30.90
2017-12-19T09:47:58.971Z,31.58
2017-12-19T09:50:26.463Z,26.70
2017-12-19T09:52:53.959Z,30.03
2017-12-19T09:55:21.485Z,26.80
2017-12-19T09:57:48.983Z,26.70
2017-12-19T10:00:17.296Z,26.50
2017-12-19T10:02:45.943Z,26.15
2017-12-19T10:05:14.233Z,25.98
2017-12-19T10:07:42.521Z,27.05
2017-12-19T10:10:10.034Z,25.50
2017-12-19T10:12:39.085Z,26.58
2017-12-19T10:15:06.583Z,26.45
2017-12-19T10:17:34.093Z,29.20
2017-12-19T10:20:01.621Z,27.62
2017-12-19T11:11:35.690Z,30.62
2017-12-19T11:14:03.201Z,28.30
2017-12-19T11:16:31.577Z,27.45
2017-12-19T11:18:59.881Z,29.50
2017-12-19T11:21:27.375Z,27.40
2017-12-19T11:23:54.885Z,26.60
2017-12-19T11:26:23.184Z,27.80
2017-12-19T11:28:50.675Z,31.37
2017-12-19T11:31:18.167Z,29.35
2017-12-19T11:33:45.704Z,29.35
2017-12-19T11:36:13.198Z,26.95
2017-12-19T11:38:41.512Z,27.02
2017-12-19T11:41:09.031Z,27.42
2017-12-19T11:43:37.305Z,30.05
2017-12-19T11:46:05.571Z,63.15
2017-12-19T11:48:33.859Z,24.37
2017-12-19T11:51:02.138Z,33.63
2017-12-19T11:53:30.454Z,28.33
2017-12-19T11:55:57.967Z,27.52
2017-12-19T12:34:28.258Z,31.67
2017-12-19T12:36:55.755Z,29.83
2017-12-19T12:39:24.019Z,29.60
2017-12-19T12:41:51.654Z,27.17
2017-12-19T12:44:19.151Z,30.90
2017-12-19T12:46:46.661Z,39.33
2017-12-19T12:49:14.191Z,27.70
2017-12-19T12:51:42.451Z,30.67
2017-12-19T12:54:11.474Z,30.60
2017-12-19T12:56:38.984Z,29.17
2017-12-19T12:59:06.502Z,35.67
2017-12-19T13:01:34.035Z,30.23
2017-12-19T13:04:02.450Z,29.48
2017-12-19T13:06:30.889Z,32.63
2017-12-19T13:08:58.427Z,29.52
2017-12-19T13:11:25.936Z,31.73
2017-12-19T13:13:53.434Z,33.53
2017-12-19T13:16:20.972Z,29.95
2017-12-19T13:18:48.470Z,33.20
2017-12-19T13:21:15.981Z,30.30
2017-12-19T13:23:43.525Z,31.48
2017-12-19T13:26:11.037Z,30.55
2017-12-19T13:28:38.531Z,28.65
2017-12-19T13:31:06.069Z,32.53
2017-12-19T13:33:34.401Z,29.67
2017-12-19T13:36:01.863Z,53.00
2017-12-19T13:38:29.396Z,31.83
2017-12-19T13:40:56.962Z,29.55
2017-12-19T13:43:24.463Z,32.72
2017-12-19T13:45:52.001Z,30.35
2017-12-19T13:48:19.513Z,33.83
2017-12-19T13:50:47.775Z,30.25
2017-12-19T13:53:16.063Z,31.52
2017-12-19T13:55:44.330Z,31.73
2017-12-19T13:58:12.595Z,33.33
2017-12-19T14:00:40.137Z,31.77
2017-12-19T14:03:07.640Z,31.87
2017-12-19T14:05:35.156Z,35.13
2017-12-19T14:08:02.699Z,31.87
2017-12-19T14:10:30.199Z,33.15
2017-12-19T14:12:58.481Z,36.03
2017-12-19T14:15:26.772Z,57.97
2017-12-19T14:17:54.290Z,30.33
2017-12-19T14:20:21.798Z,51.92
2017-12-19T14:22:49.329Z,66.20
2017-12-19T14:25:17.609Z,44.30
2017-12-19T14:27:45.139Z,31.17
2017-12-19T14:30:12.678Z,31.85
2017-12-19T14:32:40.163Z,32.53
2017-12-19T14:35:07.682Z,39.35
2017-12-19T14:37:35.193Z,32.35
2017-12-19T14:40:03.455Z,30.67
2017-12-19T14:42:30.981Z,32.10
2017-12-19T14:44:58.492Z,30.30
2017-12-19T14:47:26.786Z,32.17
2017-12-19T14:49:54.303Z,34.90
2017-12-19T14:52:21.802Z,32.78
2017-12-19T14:54:49.328Z,31.45
2017-12-19T14:57:17.595Z,31.62
2017-12-19T14:59:45.095Z,33.55
2017-12-19T15:02:12.633Z,34.10
2017-12-19T15:04:40.900Z,33.33
2017-12-19T15:07:09.175Z,35.00
2017-12-19T15:09:37.467Z,35.13
2017-12-19T15:12:05.744Z,35.33
2017-12-19T15:14:33.257Z,36.72
2017-12-19T15:17:00.793Z,33.40
2017-12-19T15:19:28.309Z,34.78
2017-12-19T15:21:56.589Z,35.10
2017-12-19T15:24:24.905Z,33.58
2017-12-19T15:26:52.411Z,33.47
2017-12-19T15:29:20.679Z,36.40
2017-12-19T15:31:48.975Z,34.72
2017-12-19T15:34:17.243Z,35.65
2017-12-19T15:36:45.522Z,38.92
2017-12-19T15:39:13.830Z,34.65
2017-12-19T15:41:41.335Z,34.70
2017-12-19T15:44:08.834Z,38.25
2017-12-19T15:46:36.356Z,34.08
2017-12-19T15:49:03.860Z,37.78
2017-12-19T15:51:31.358Z,39.70
2017-12-19T15:53:58.883Z,37.08
2017-12-19T15:56:26.403Z,36.28
2017-12-19T15:58:54.689Z,34.20
2017-12-19T16:01:22.979Z,36.05
2017-12-19T16:03:50.479Z,37.78
2017-12-19T16:06:17.978Z,34.17
2017-12-19T16:08:45.535Z,38.42
2017-12-19T16:11:13.821Z,36.88
2017-12-19T16:13:41.337Z,33.90
2017-12-19T16:16:08.877Z,32.33
2017-12-19T16:18:36.422Z,34.33
2017-12-19T16:21:03.933Z,36.67
2017-12-19T16:23:32.223Z,35.00
2017-12-19T16:26:00.501Z,34.58
2017-12-19T16:28:28.781Z,33.15
2017-12-19T16:30:56.321Z,34.30
2017-12-19T16:33:24.588Z,36.55
2017-12-19T16:35:52.855Z,35.05
2017-12-19T16:38:20.378Z,36.78
2017-12-19T16:40:47.885Z,35.10
2017-12-19T16:43:15.396Z,34.08
2017-12-19T16:45:42.936Z,33.38
2017-12-19T16:48:10.458Z,32.50
2017-12-19T16:50:37.979Z,33.33
2017-12-19T16:53:05.489Z,31.77
2017-12-19T16:55:33.755Z,32.78
2017-12-19T17:01:08.331Z,29.90
2017-12-19T17:03:36.576Z,32.87
2017-12-19T17:06:04.088Z,31.92
2017-12-19T17:08:31.613Z,30.10
2017-12-19T17:10:59.107Z,29.65
2017-12-19T17:13:26.637Z,30.95
2017-12-19T17:15:54.138Z,35.38
2017-12-19T17:18:21.668Z,34.47
2017-12-19T17:20:49.162Z,35.08
2017-12-19T17:23:16.688Z,34.40
2017-12-19T17:25:44.182Z,31.95
2017-12-19T17:28:12.458Z,31.73
2017-12-19T17:30:40.718Z,31.05
2017-12-19T17:33:08.234Z,30.15
2017-12-19T17:35:35.730Z,30.90
2017-12-19T17:38:03.261Z,36.47
2017-12-19T17:40:31.484Z,34.58
2017-12-19T17:42:59.776Z,35.85
2017-12-19T17:45:27.312Z,32.55
2017-12-19T17:47:54.837Z,31.17
2017-12-19T17:50:22.331Z,32.35
2017-12-19T17:52:49.823Z,31.95
2017-12-19T17:55:17.326Z,31.92
2017-12-19T17:57:44.814Z,33.60
2017-12-19T18:00:13.104Z,33.20
2017-12-19T18:02:40.669Z,33.28
2017-12-19T18:05:08.933Z,33.97
2017-12-19T18:07:37.200Z,32.28
2017-12-19T18:10:05.474Z,34.85
2017-12-19T18:12:33.730Z,37.00
2017-12-19T18:15:01.248Z,35.30
2017-12-19T18:17:28.752Z,36.28
2017-12-19T18:19:56.255Z,34.88
2017-12-19T18:22:23.768Z,34.97
2017-12-19T18:24:51.296Z,36.83
2017-12-19T18:27:18.800Z,32.70
2017-12-19T18:29:47.089Z,38.30
2017-12-19T18:32:14.601Z,36.67
2017-12-19T18:34:42.170Z,39.58
2017-12-19T18:37:09.680Z,36.80
2017-12-19T18:39:37.601Z,38.78
2017-12-19T18:42:05.096Z,43.38
2017-12-19T18:44:32.606Z,37.00
2017-12-19T18:47:00.107Z,39.65
2017-12-19T18:49:27.622Z,39.75
2017-12-19T18:51:55.131Z,40.10
2017-12-19T18:54:22.657Z,38.78
2017-12-19T18:56:50.159Z,39.70
2017-12-19T18:59:17.719Z,39.97
2017-12-19T19:01:45.219Z,41.50
2017-12-19T19:04:13.538Z,39.55
2017-12-19T19:06:41.113Z,42.67
2017-12-19T19:09:08.632Z,40.53
2017-12-19T19:11:36.946Z,38.40
2017-12-19T19:14:04.449Z,43.25
2017-12-19T19:16:31.948Z,41.50
2017-12-19T19:18:59.458Z,38.80
2017-12-19T19:21:26.955Z,38.35
2017-12-19T19:23:55.230Z,39.15
2017-12-19T19:26:23.490Z,41.10
2017-12-19T19:28:51.776Z,37.33
2017-12-19T19:31:20.044Z,36.80
2017-12-19T19:33:48.336Z,36.97
2017-12-19T19:36:16.613Z,35.10
2017-12-19T19:38:44.126Z,35.20
2017-12-19T19:41:11.619Z,32.10
2017-12-19T19:43:39.891Z,34.33
2017-12-19T19:46:08.147Z,30.45
2017-12-19T19:48:35.673Z,33.15
2017-12-19T19:51:03.162Z,30.08
2017-12-19T19:53:30.685Z,30.42
2017-12-19T19:55:58.179Z,31.25
2017-12-19T19:58:25.681Z,30.92
2017-12-19T20:00:53.171Z,31.60
2017-12-19T20:03:20.690Z,31.48
2017-12-19T20:05:48.187Z,32.20
2017-12-19T20:08:15.713Z,30.23
2017-12-19T20:10:43.229Z,29.42
2017-12-19T20:13:10.831Z,29.65
2017-12-19T20:15:38.338Z,28.40
2017-12-19T20:18:05.862Z,28.65
2017-12-19T20:20:33.367Z,29.33
2017-12-19T20:23:00.972Z,27.17
2017-12-19T20:25:28.457Z,25.92
2017-12-19T20:27:55.962Z,25.80
2017-12-19T20:30:24.232Z,26.02
2017-12-19T20:32:52.497Z,26.65
2017-12-19T20:35:20.774Z,24.33
2017-12-19T20:37:48.277Z,24.80
2017-12-19T20:40:16.186Z,22.83
2017-12-19T20:42:43.678Z,25.42
2017-12-19T20:45:11.609Z,24.25
2017-12-19T20:47:39.108Z,21.25
2017-12-19T20:50:06.617Z,22.35
2017-12-19T20:52:34.106Z,22.55
2017-12-19T20:55:02.373Z,23.17
2017-12-19T20:57:29.867Z,23.15
2017-12-19T20:59:57.433Z,20.70
2017-12-19T21:02:24.934Z,20.10
2017-12-19T21:04:52.439Z,19.42
2017-12-19T21:07:19.930Z,20.90
2017-12-19T21:09:47.448Z,20.52
2017-12-19T21:12:14.938Z,19.02
2017-12-19T21:14:42.457Z,19.52
2017-12-19T21:17:10.714Z,21.50
2017-12-19T21:19:38.222Z,20.10
2017-12-19T21:22:05.718Z,19.60
2017-12-19T21:24:33.230Z,20.08
2017-12-19T21:27:00.737Z,20.00
2017-12-19T21:29:29.750Z,20.65
2017-12-19T21:31:58.021Z,20.83
2017-12-19T21:34:26.313Z,19.45
2017-12-19T21:36:54.585Z,22.65
2017-12-19T21:39:22.854Z,21.60
2017-12-19T21:41:51.102Z,20.75
2017-12-19T21:44:18.701Z,20.60
2017-12-19T21:46:46.958Z,21.00
2017-12-19T21:49:15.254Z,20.40
2017-12-19T21:51:42.755Z,20.02
2017-12-19T21:54:10.267Z,19.60
2017-12-19T21:56:38.540Z,19.30
2017-12-19T21:59:06.815Z,18.35
2017-12-19T22:01:35.098Z,18.35
2017-12-19T22:04:02.605Z,19.75
2017-12-19T22:06:30.095Z,18.37
2017-12-19T22:08:58.370Z,18.50
2017-12-19T22:11:26.634Z,18.83
2017-12-19T22:13:54.133Z,17.83
2017-12-19T22:16:21.622Z,17.35
2017-12-19T22:18:49.125Z,16.00
2017-12-19T22:21:17.387Z,17.55
2017-12-19T22:23:46.412Z,16.50
2017-12-19T22:26:13.922Z,15.85
2017-12-19T22:28:41.431Z,16.90
2017-12-19T22:31:08.913Z,17.30
2017-12-19T22:33:36.432Z,16.98
2017-12-19T22:36:04.708Z,16.85
2017-12-19T22:38:32.998Z,15.52
2017-12-19T22:41:00.505Z,16.83
2017-12-19T22:43:28.033Z,16.60
2017-12-19T22:45:55.522Z,14.75
2017-12-19T22:48:23.026Z,15.73
2017-12-19T22:50:50.514Z,16.55
2017-12-19T22:53:18.022Z,15.50
2017-12-19T22:55:46.328Z,14.73
2017-12-19T22:58:13.839Z,15.68
2017-12-19T23:00:42.109Z,15.80
2017-12-19T23:03:09.628Z,15.75
2017-12-19T23:05:37.166Z,15.73
2017-12-19T23:08:04.693Z,15.55
2017-12-19T23:10:32.295Z,14.57
2017-12-19T23:12:59.874Z,16.55
2017-12-19T23:15:27.411Z,14.75
2017-12-19T23:17:54.972Z,14.00
2017-12-19T23:20:22.488Z,15.90
2017-12-19T23:22:49.998Z,15.65
2017-12-19T23:25:17.506Z,15.65
2017-12-19T23:27:45.013Z,17.33
2017-12-19T23:30:12.545Z,13.93
2017-12-19T23:32:40.810Z,14.70
2017-12-19T23:35:09.096Z,15.25
2017-12-19T23:37:37.355Z,15.63
2017-12-19T23:40:04.853Z,15.05
2017-12-19T23:42:32.341Z,13.95
2017-12-19T23:44:59.974Z,14.43
2017-12-19T23:47:27.488Z,14.50
2017-12-19T23:49:55.014Z,16.23
2017-12-19T23:52:22.497Z,15.13
2017-12-19T23:54:50.012Z,16.45
2017-12-19T23:57:17.502Z,14.55
2017-12-19T23:59:45.125Z,15.48
